Time;durP1;ratioP1;P1;durP2;ratioP2;P2;SDS_P1;SDS_P2;PMS_P1;PMS_P2;Temp;Humidity;BMP_temperature;BMP_pressure;BME280_temperature;BME280_humidity;BME280_pressure;Samples;Min_cycle;Max_cycle;Signal;HPM_P1;HPM_P2
2023/08/07 00:00:11;;;;;;;14.90;3.77;;;;;;;14.62;100.00;155067.66;5062051;28;20064;-73
2023/08/07 00:02:36;;;;;;;20.20;3.83;;;;;;;14.62;100.00;155067.66;5061476;28;20024;-72
2023/08/07 00:05:02;;;;;;;18.07;3.53;;;;;;;14.69;100.00;155084.56;5064297;28;20120;-74
2023/08/07 00:07:28;;;;;;;20.10;4.07;;;;;;;14.71;100.00;155089.72;5061842;28;20413;-72
2023/08/07 00:09:53;;;;;;;20.80;3.37;;;;;;;14.73;100.00;155094.97;5060893;28;20059;-72
2023/08/07 00:12:19;;;;;;;16.90;3.63;;;;;;;14.69;100.00;155084.56;5065035;28;20131;-72
2023/08/07 00:14:47;;;;;;;15.13;4.40;;;;;;;14.72;100.00;155093.63;5076016;28;20029;-72
2023/08/07 00:17:13;;;;;;;16.20;4.40;;;;;;;14.71;100.00;155091.06;5061204;28;20025;-72
2023/08/07 00:19:39;;;;;;;19.38;3.30;;;;;;;14.71;100.00;155089.72;5061612;28;20029;-72
2023/08/07 00:22:04;;;;;;;14.87;4.23;;;;;;;14.75;100.00;155101.44;5060620;28;20067;-73
2023/08/07 00:24:30;;;;;;;16.90;3.33;;;;;;;14.73;100.00;155096.22;5063362;28;20033;-72
2023/08/07 00:26:56;;;;;;;13.87;3.00;;;;;;;14.74;100.00;155097.53;5062220;28;20059;-73
2023/08/07 00:29:21;;;;;;;15.80;2.57;;;;;;;14.71;100.00;155089.72;5062731;28;20032;-71
2023/08/07 00:31:46;;;;;;;17.13;3.90;;;;;;;14.72;100.00;155092.38;5078107;28;20020;-71
2023/08/07 00:34:12;;;;;;;17.67;3.90;;;;;;;14.72;100.00;155093.63;5066067;28;20028;-72
2023/08/07 00:36:37;;;;;;;26.47;4.90;;;;;;;14.72;100.00;155092.38;5058445;28;20021;-73
2023/08/07 00:39:03;;;;;;;11.73;4.00;;;;;;;14.74;100.00;155097.53;5060455;28;20029;-72
2023/08/07 00:41:29;;;;;;;15.60;3.10;;;;;;;14.75;100.00;155100.13;5065943;28;20024;-72
2023/08/07 00:43:54;;;;;;;13.20;3.00;;;;;;;14.75;100.00;155100.13;5057483;28;20054;-73
2023/08/07 00:46:20;;;;;;;14.63;3.73;;;;;;;14.62;100.00;155066.38;5066877;28;20016;-72
2023/08/07 00:48:45;;;;;;;9.33;3.37;;;;;;;14.34;100.00;154994.94;5067209;28;20387;-72
2023/08/07 00:51:11;;;;;;;7.07;2.47;;;;;;;14.16;100.00;154946.84;5062356;28;20035;-73
2023/08/07 00:53:39;;;;;;;13.57;3.00;;;;;;;13.98;100.00;154901.41;5058001;28;20029;-72
2023/08/07 00:56:05;;;;;;;16.65;4.05;;;;;;;13.91;100.00;154883.25;5062672;28;20147;-73
2023/08/07 00:58:31;;;;;;;10.48;3.67;;;;;;;13.91;100.00;154883.25;5059800;28;20527;-72
2023/08/07 01:00:57;;;;;;;12.52;3.38;;;;;;;13.89;100.00;154876.75;5060464;28;20044;-73
2023/08/07 01:03:23;;;;;;;16.75;3.28;;;;;;;13.87;100.00;147097.25;5078704;28;20375;-72
2023/08/07 01:05:49;;;;;;;15.13;3.17;;;;;;;13.84;100.00;134917.22;5065470;28;20112;-73
2023/08/07 01:08:14;;;;;;;11.27;3.67;;;;;;;13.85;100.00;126397.38;5063840;28;20043;-72
2023/08/07 01:11:18;;;;;;;17.50;3.43;;;;;;;13.87;100.00;120022.31;5080895;28;20389;-73
2023/08/07 01:14:00;;;;;;;13.18;3.72;;;;;;;13.86;100.00;119313.09;5060863;28;20067;-74
2023/08/07 01:16:37;;;;;;;26.65;4.65;;;;;;;13.91;100.00;118259.94;5067156;28;20037;-72
2023/08/07 01:19:04;;;;;;;9.93;3.38;;;;;;;13.92;100.00;123221.06;5051178;28;20891;-72
2023/08/07 01:21:31;;;;;;;14.65;3.60;;;;;;;13.97;100.00;136724.38;5071054;28;20036;-72
2023/08/07 01:23:57;;;;;;;14.55;3.88;;;;;;;14.04;100.00;154916.97;5062286;28;20037;-73
2023/08/07 01:26:24;;;;;;;19.67;4.33;;;;;;;14.12;100.00;154936.47;5064451;28;20075;-73
2023/08/07 01:29:02;;;;;;;15.90;3.75;;;;;;;14.22;100.00;154962.47;5069395;28;20039;-72
2023/08/07 01:31:31;;;;;;;18.63;3.70;;;;;;;14.28;100.00;154978.06;5062925;28;20028;-72
2023/08/07 01:33:59;;;;;;;19.55;3.28;;;;;;;14.35;100.00;154996.28;5060918;28;20029;-73
2023/08/07 01:36:28;;;;;;;19.13;3.28;;;;;;;14.39;100.00;155006.63;5064777;28;20388;-73
2023/08/07 01:38:57;;;;;;;20.13;3.55;;;;;;;14.45;100.00;155023.50;5061823;28;20032;-73
2023/08/07 01:41:24;;;;;;;12.77;3.92;;;;;;;14.48;100.00;155030.00;5046550;28;20477;-72
2023/08/07 01:43:50;;;;;;;13.02;3.42;;;;;;;14.50;100.00;155035.19;5064034;28;20086;-73
2023/08/07 01:46:16;;;;;;;11.57;3.92;;;;;;;14.51;100.00;155039.09;5061032;28;20021;-73
2023/08/07 01:48:41;;;;;;;13.10;3.83;;;;;;;14.53;100.00;155043.00;5064353;28;20025;-72
2023/08/07 01:51:07;;;;;;;13.73;3.60;;;;;;;14.54;100.00;155045.59;5064999;28;20494;-73
2023/08/07 01:53:32;;;;;;;12.33;3.63;;;;;;;14.57;100.00;155054.66;5064966;28;20032;-74
2023/08/07 01:55:58;;;;;;;12.33;4.00;;;;;;;14.57;100.00;155054.66;5064017;28;20128;-71
2023/08/07 01:58:23;;;;;;;13.57;3.47;;;;;;;14.62;100.00;155067.66;5066461;28;21466;-72
2023/08/07 02:00:48;;;;;;;13.47;3.67;;;;;;;14.57;100.00;155053.41;5061706;28;20060;-72
2023/08/07 02:03:14;;;;;;;14.10;3.47;;;;;;;14.60;100.00;155062.47;5068736;28;20434;-74
2023/08/07 02:05:39;;;;;;;16.73;3.40;;;;;;;14.59;100.00;155058.56;5068132;28;20017;-73
2023/08/07 02:08:05;;;;;;;17.93;3.30;;;;;;;14.63;100.00;155068.97;5064832;28;20506;-74
2023/08/07 02:10:30;;;;;;;20.20;3.43;;;;;;;14.64;100.00;155072.88;5096455;28;20043;-74
2023/08/07 02:12:59;;;;;;;8.63;3.63;;;;;;;14.67;100.00;155080.66;5067338;28;20409;-73
2023/08/07 02:15:24;;;;;;;16.20;3.47;;;;;;;14.66;100.00;155076.75;5063263;28;20507;-74
2023/08/07 02:17:50;;;;;;;12.87;3.77;;;;;;;14.69;100.00;155084.56;5064452;28;20020;-73
2023/08/07 02:20:15;;;;;;;13.33;3.07;;;;;;;14.66;100.00;155078.06;5064261;28;20039;-74
2023/08/07 02:22:40;;;;;;;16.00;3.20;;;;;;;14.68;100.00;155081.97;5062235;28;20056;-73
2023/08/07 02:25:06;;;;;;;18.00;3.33;;;;;;;14.70;100.00;155087.13;5068788;28;20367;-73
2023/08/07 02:27:31;;;;;;;13.17;3.50;;;;;;;14.72;100.00;155093.63;5063662;28;20074;-73
2023/08/07 02:29:57;;;;;;;13.43;3.57;;;;;;;14.68;100.00;155083.22;5059425;28;20036;-74
2023/08/07 02:32:23;;;;;;;12.83;3.53;;;;;;;14.63;100.00;155070.25;5065810;28;20508;-73
2023/08/07 02:34:48;;;;;;;13.73;3.17;;;;;;;14.63;100.00;155070.25;5059681;28;20028;-73
2023/08/07 02:37:14;;;;;;;31.20;3.83;;;;;;;14.71;100.00;155091.06;5064509;28;20056;-73
2023/08/07 02:39:39;;;;;;;30.73;5.03;;;;;;;14.70;100.00;155087.13;5096099;28;20528;-73
2023/08/07 02:42:05;;;;;;;16.27;3.53;;;;;;;14.74;100.00;155097.53;5060351;28;20020;-74
2023/08/07 02:44:31;;;;;;;11.57;3.60;;;;;;;14.71;100.00;155089.72;5069042;28;20056;-72
2023/08/07 02:46:56;;;;;;;21.20;4.00;;;;;;;14.72;100.00;155093.63;5048111;28;20036;-73
2023/08/07 02:49:22;;;;;;;12.50;3.13;;;;;;;14.74;100.00;155098.81;5062529;28;20068;-72
2023/08/07 02:51:47;;;;;;;17.53;4.03;;;;;;;14.77;100.00;155105.31;5070401;28;20020;-73
2023/08/07 02:54:12;;;;;;;15.77;4.47;;;;;;;14.74;100.00;155098.81;5064390;28;20028;-74
2023/08/07 02:56:38;;;;;;;13.60;3.50;;;;;;;14.74;100.00;155097.53;5065038;28;20025;-72
2023/08/07 02:59:04;;;;;;;15.20;3.57;;;;;;;14.69;100.00;155084.56;5062181;28;20039;-72
2023/08/07 03:01:30;;;;;;;10.50;4.28;;;;;;;14.68;100.00;155081.97;5062942;28;20555;-72
2023/08/07 03:03:55;;;;;;;17.77;3.33;;;;;;;14.71;100.00;155089.72;5069425;28;20495;-72
2023/08/07 03:06:22;;;;;;;16.97;3.33;;;;;;;14.73;100.00;155094.97;5045742;28;20032;-72
2023/08/07 03:08:47;;;;;;;;;;;;;;;14.74;100.00;155098.81;5063490;28;20533;-73
2023/08/07 03:11:13;;;;;;;18.60;3.58;;;;;;;14.72;100.00;155092.38;5063987;28;19913;-72
2023/08/07 03:13:38;;;;;;;21.33;3.40;;;;;;;14.73;100.00;155094.97;5086009;28;20438;-72
2023/08/07 03:16:05;;;;;;;13.33;3.53;;;;;;;14.68;100.00;155081.97;5060213;28;20025;-72
2023/08/07 03:18:32;;;;;;;14.18;3.35;;;;;;;14.69;100.00;155084.56;5057136;28;20036;-72
2023/08/07 03:20:58;;;;;;;9.57;3.33;;;;;;;14.67;100.00;155079.38;5062774;28;20035;-72
2023/08/07 03:23:24;;;;;;;17.57;3.57;;;;;;;14.60;100.00;155061.16;5060892;28;20505;-73
2023/08/07 03:25:50;;;;;;;17.20;3.72;;;;;;;14.46;100.00;155024.84;5061732;28;20194;-73
2023/08/07 03:28:17;;;;;;;;;;;;;;;14.33;100.00;154991.03;5061912;28;20032;-72
2023/08/07 03:30:44;;;;;;;13.15;3.47;;;;;;;14.23;100.00;154965.06;5065667;28;20400;-72
2023/08/07 03:33:09;;;;;;;15.70;4.25;;;;;;;14.18;100.00;154953.34;5063391;28;20062;-73
2023/08/07 03:35:35;;;;;;;12.67;3.10;;;;;;;14.16;100.00;154948.19;5064142;28;20052;-73
2023/08/07 03:38:00;;;;;;;13.33;3.43;;;;;;;14.17;100.00;154950.75;5060345;28;20512;-73
2023/08/07 03:40:26;;;;;;;22.43;4.03;;;;;;;14.17;100.00;154949.44;5058725;28;20036;-73
2023/08/07 03:42:51;;;;;;;15.53;3.73;;;;;;;14.19;100.00;154956.00;5070486;28;20060;-74
2023/08/07 03:45:16;;;;;;;13.33;4.33;;;;;;;14.05;100.00;154918.31;5061985;28;20024;-74
2023/08/07 03:47:42;;;;;;;11.40;2.60;;;;;;;13.93;100.00;154887.16;5063665;28;20048;-74
2023/08/07 03:50:07;;;;;;;12.47;3.30;;;;;;;13.83;100.00;154862.47;5066482;28;20032;-73
2023/08/07 03:52:33;;;;;;;12.30;3.30;;;;;;;13.77;100.00;154845.63;5045799;28;20056;-75
2023/08/07 03:55:00;;;;;;;8.30;2.70;;;;;;;13.75;100.00;154840.41;5065483;28;20032;-74
2023/08/07 03:57:25;;;;;;;10.40;2.67;;;;;;;13.77;100.00;154845.63;5058410;28;20135;-73
2023/08/07 03:59:50;;;;;;;11.57;3.13;;;;;;;13.75;100.00;154841.72;5059046;28;20458;-74
2023/08/07 04:02:16;;;;;;;7.50;2.60;;;;;;;13.78;100.00;154848.22;5060965;28;20078;-73
2023/08/07 04:04:41;;;;;;;18.97;3.20;;;;;;;13.87;100.00;154872.88;5066404;28;20029;-74
2023/08/07 04:07:07;;;;;;;12.03;3.07;;;;;;;13.84;100.00;154865.09;5060937;28;20028;-74
2023/08/07 04:09:33;;;;;;;8.15;2.25;;;;;;;13.86;100.00;154870.28;5058486;28;20036;-73
2023/08/07 04:11:58;;;;;;;8.00;3.10;;;;;;;13.88;100.00;154875.44;5055848;28;20079;-74
2023/08/07 04:14:24;;;;;;;10.77;3.67;;;;;;;13.89;100.00;154878.09;5068760;28;20761;-73
2023/08/07 04:16:50;;;;;;;8.80;2.63;;;;;;;13.89;100.00;154878.09;5064026;28;20034;-75
2023/08/07 04:19:15;;;;;;;10.77;2.30;;;;;;;13.93;100.00;154888.44;5062451;28;20099;-73
2023/08/07 04:21:41;;;;;;;17.07;3.13;;;;;;;13.94;100.00;154891.00;5063470;28;20033;-73
2023/08/07 04:24:10;;;;;;;11.93;2.83;;;;;;;13.97;100.00;154897.50;5066715;28;20047;-74
2023/08/07 04:26:37;;;;;;;18.17;2.97;;;;;;;13.94;100.00;154891.00;5056137;28;20025;-73
2023/08/07 04:29:03;;;;;;;20.60;3.15;;;;;;;13.93;100.00;154887.16;5093837;28;20133;-74
2023/08/07 04:31:31;;;;;;;14.20;3.20;;;;;;;13.96;100.00;154894.91;5062816;28;20044;-74
2023/08/07 04:33:57;;;;;;;13.52;3.10;;;;;;;13.95;100.00;154892.34;5059005;28;20115;-74
2023/08/07 04:36:22;;;;;;;13.40;3.40;;;;;;;13.96;100.00;154894.91;5061517;28;20554;-73
2023/08/07 04:38:47;;;;;;;13.13;3.17;;;;;;;13.95;100.00;154892.34;5064594;28;20269;-73
2023/08/07 04:41:13;;;;;;;16.10;3.03;;;;;;;13.94;100.00;154891.00;5047424;28;20449;-73
2023/08/07 04:43:38;;;;;;;16.97;3.47;;;;;;;14.00;100.00;154905.31;5064854;28;20025;-73
2023/08/07 04:46:04;;;;;;;15.73;3.33;;;;;;;14.01;100.00;154909.22;5060844;28;20024;-74
2023/08/07 04:48:29;;;;;;;15.30;3.83;;;;;;;14.08;100.00;154926.13;5067533;28;20720;-73
2023/08/07 04:50:55;;;;;;;18.70;4.30;;;;;;;14.13;100.00;154939.03;5062443;28;20032;-73
2023/08/07 04:53:21;;;;;;;25.08;4.40;;;;;;;14.17;100.00;154949.44;5056757;28;20029;-73
2023/08/07 04:55:46;;;;;;;24.73;6.00;;;;;;;14.17;100.00;154950.75;5065825;28;20416;-73
2023/08/07 04:58:12;;;;;;;19.47;3.70;;;;;;;14.20;100.00;154957.31;5057701;28;20029;-74
2023/08/07 05:00:37;;;;;;;27.83;3.90;;;;;;;14.26;100.00;154974.16;5065673;28;20550;-73
2023/08/07 05:03:02;;;;;;;25.67;4.07;;;;;;;14.31;100.00;154985.88;5066000;28;20059;-74
2023/08/07 05:05:28;;;;;;;20.47;3.47;;;;;;;14.35;100.00;154997.53;5059425;28;20045;-73
2023/08/07 05:07:55;;;;;;;12.00;3.43;;;;;;;14.31;100.00;154985.88;5063540;28;20054;-74
2023/08/07 05:10:20;;;;;;;;;;;;;;;14.39;100.00;155007.94;5068422;28;20462;-73
2023/08/07 05:12:45;;;;;;;15.75;3.45;;;;;;;14.42;100.00;155014.44;5060880;28;19913;-74
2023/08/07 05:15:11;;;;;;;16.17;3.37;;;;;;;14.51;100.00;155037.81;5064821;28;20032;-74
2023/08/07 05:17:36;;;;;;;19.37;3.50;;;;;;;14.63;100.00;155068.97;5060247;28;20039;-73
2023/08/07 05:20:02;;;;;;;27.03;3.97;;;;;;;14.67;100.00;155079.38;5064475;28;20058;-73
2023/08/07 05:22:27;;;;;;;15.07;3.10;;;;;;;14.65;100.00;155074.16;5060706;28;20029;-74
2023/08/07 05:24:53;;;;;;;24.63;3.90;;;;;;;14.67;100.00;155080.66;5059286;28;20111;-74
2023/08/07 05:27:18;;;;;;;16.87;3.73;;;;;;;14.70;100.00;155087.13;5066583;28;20038;-73
2023/08/07 05:29:44;;;;;;;13.90;3.17;;;;;;;14.79;100.00;155111.81;5064078;28;20595;-74
2023/08/07 05:32:11;;;;;;;15.47;3.23;;;;;;;14.83;100.00;155122.22;5097641;28;20058;-73
2023/08/07 05:34:36;;;;;;;;;;;;;;;14.87;100.00;155131.28;5056215;28;20051;-74
2023/08/07 05:37:03;;;;;;;11.20;3.03;;;;;;;14.89;100.00;155136.53;5064057;28;19964;-74
2023/08/07 05:39:28;;;;;;;;;;;;;;;14.81;100.00;155115.72;5067475;28;20025;-73
2023/08/07 05:41:57;;;;;;;15.55;2.50;;;;;;;14.81;100.00;155115.72;5061560;28;19916;-73
2023/08/07 05:44:26;;;;;;;15.18;2.50;;;;;;;14.76;100.00;155104.03;5068614;28;20807;-75
2023/08/07 05:46:52;;;;;;;10.82;3.22;;;;;;;14.70;100.00;155088.47;5101364;28;20428;-73
2023/08/07 05:49:17;;;;;;;14.63;2.43;;;;;;;14.72;100.00;155092.38;5058902;28;20108;-74
2023/08/07 05:51:43;;;;;;;18.00;3.73;;;;;;;14.74;100.00;155097.53;5068192;28;20028;-73
2023/08/07 05:54:08;;;;;;;14.10;2.87;;;;;;;14.91;100.00;155143.03;5067303;28;20547;-73
2023/08/07 05:56:34;;;;;;;19.73;3.20;;;;;;;15.01;100.00;155169.00;5094501;28;20497;-73
2023/08/07 05:58:59;;;;;;;22.97;3.57;;;;;;;15.08;100.00;155187.19;5065382;28;20082;-73
2023/08/07 06:01:30;;;;;;;14.67;2.43;;;;;;;15.10;100.00;155192.34;5069692;28;20041;-74
2023/08/07 06:03:56;;;;;;;17.83;3.22;;;;;;;15.17;100.00;155210.59;5068625;28;20036;-73
2023/08/07 06:06:22;;;;;;;12.02;3.35;;;;;;;15.25;100.00;155230.03;5067921;28;20082;-74
2023/08/07 06:08:47;;;;;;;13.53;3.37;;;;;;;15.27;100.00;155235.25;5065898;28;20024;-74
2023/08/07 06:11:13;;;;;;;16.27;2.93;;;;;;;15.18;100.00;155211.84;5070890;28;20056;-73
2023/08/07 06:13:40;;;;;;;11.37;3.10;;;;;;;15.26;100.00;155232.66;5064282;28;20076;-74
2023/08/07 06:16:06;;;;;;;17.25;3.33;;;;;;;15.27;100.00;155235.25;5065371;28;20510;-73
2023/08/07 06:18:31;;;;;;;15.27;3.67;;;;;;;15.34;100.00;155253.47;5067757;28;20111;-73
2023/08/07 06:20:57;;;;;;;12.43;2.60;;;;;;;15.40;100.00;155269.06;5061785;28;20107;-73
2023/08/07 06:23:22;;;;;;;15.90;3.77;;;;;;;15.48;100.00;155289.88;5067940;28;20466;-73
2023/08/07 06:25:48;;;;;;;27.43;3.63;;;;;;;15.59;100.00;155318.47;5062502;28;20020;-72
2023/08/07 06:28:13;;;;;;;18.20;3.83;;;;;;;15.96;100.00;155415.94;5067904;28;20090;-73
2023/08/07 06:30:39;;;;;;;10.17;3.67;;;;;;;16.34;100.00;155514.75;5062594;28;20024;-73
2023/08/07 06:33:04;;;;;;;21.53;3.47;;;;;;;16.35;100.00;155516.06;5064978;28;20024;-73
2023/08/07 06:35:30;;;;;;;13.70;2.80;;;;;;;16.12;100.00;155456.28;5064051;28;20104;-73
2023/08/07 06:37:55;;;;;;;12.33;2.60;;;;;;;16.85;100.00;155646.19;5057452;28;20041;-73
2023/08/07 06:40:21;;;;;;;18.43;4.03;;;;;;;18.12;100.00;155976.84;5064620;28;20033;-72
2023/08/07 06:42:46;;;;;;;22.17;4.20;;;;;;;18.42;94.73;156055.06;5060391;28;20029;-73
2023/08/07 06:45:11;;;;;;;18.23;3.30;;;;;;;17.53;95.73;155823.22;5059310;28;20013;-73
2023/08/07 06:47:37;;;;;;;9.53;2.67;;;;;;;17.76;95.47;155883.16;5062511;28;20044;-72
2023/08/07 06:50:04;;;;;;;15.57;3.30;;;;;;;18.72;91.78;156133.25;5063688;28;20107;-73
2023/08/07 06:52:29;;;;;;;12.10;2.80;;;;;;;19.31;85.62;156288.34;5062348;28;20020;-73
2023/08/07 06:54:54;;;;;;;9.83;2.77;;;;;;;19.44;82.26;156320.94;5053091;28;20553;-72
2023/08/07 06:57:20;;;;;;;18.77;3.40;;;;;;;19.41;78.84;156313.09;5064959;28;20453;-73
2023/08/07 06:59:45;;;;;;;13.57;2.50;;;;;;;19.88;78.14;156437.00;5060911;28;20029;-73
2023/08/07 07:02:11;;;;;;;17.83;3.50;;;;;;;19.80;77.74;156414.84;5058755;28;20417;-73
2023/08/07 07:04:37;;;;;;;13.67;3.67;;;;;;;19.14;79.24;156242.66;5063456;28;20039;-73
2023/08/07 07:07:02;;;;;;;14.63;2.00;;;;;;;19.10;78.80;156233.56;5065980;28;20037;-71
2023/08/07 07:09:28;;;;;;;6.47;2.30;;;;;;;18.57;79.62;156095.44;5058584;28;20440;-72
2023/08/07 07:11:54;;;;;;;10.93;2.35;;;;;;;18.20;81.52;155999.00;5063300;28;20036;-72
2023/08/07 07:14:20;;;;;;;14.57;3.67;;;;;;;18.12;80.23;155976.84;5060261;28;20519;-72
2023/08/07 07:16:45;;;;;;;8.43;2.67;;;;;;;19.01;79.51;156208.81;5064594;28;20017;-72
2023/08/07 07:19:10;;;;;;;14.87;2.77;;;;;;;19.12;76.78;156237.47;5064940;28;20447;-73
2023/08/07 07:21:36;;;;;;;11.00;2.97;;;;;;;19.54;74.33;156348.28;5063622;28;20461;-73
2023/08/07 07:24:02;;;;;;;11.60;2.77;;;;;;;19.89;73.00;156438.28;5065250;28;20040;-73
2023/08/07 07:26:27;;;;;;;7.13;2.10;;;;;;;19.56;71.60;156353.53;5065463;28;20048;-72
2023/08/07 07:28:53;;;;;;;12.57;3.03;;;;;;;18.55;74.78;156088.91;5064529;28;20066;-74
2023/08/07 07:31:18;;;;;;;13.27;2.63;;;;;;;17.77;77.66;155885.75;5068624;28;20025;-72
2023/08/07 07:33:44;;;;;;;7.67;2.20;;;;;;;17.47;81.69;155807.63;5069033;28;20042;-73
2023/08/07 07:36:16;;;;;;;8.03;2.10;;;;;;;17.54;82.77;155827.16;5061408;28;20024;-72
2023/08/07 07:38:42;;;;;;;10.07;2.40;;;;;;;17.64;79.54;155851.88;5062254;28;20044;-72
2023/08/07 07:41:11;;;;;;;9.70;2.13;;;;;;;17.94;78.89;155930.00;5055727;28;20029;-74
2023/08/07 07:43:36;;;;;;;11.80;2.45;;;;;;;18.73;75.53;156135.84;5059136;28;20390;-74
2023/08/07 07:46:02;;;;;;;7.37;2.33;;;;;;;18.61;74.96;156104.53;5066024;28;20020;-73
2023/08/07 07:48:27;;;;;;;10.13;2.20;;;;;;;18.91;74.79;156184.06;5066797;28;20461;-73
2023/08/07 07:50:59;;;;;;;13.40;2.20;;;;;;;19.13;72.23;156241.41;5067771;28;20157;-74
2023/08/07 07:53:24;;;;;;;9.18;2.08;;;;;;;18.89;70.94;156177.53;5065952;28;20401;-72
2023/08/07 07:55:50;;;;;;;11.47;2.83;;;;;;;19.13;69.70;156240.06;5060612;28;20021;-73
2023/08/07 07:58:16;;;;;;;14.48;3.42;;;;;;;19.16;69.13;156247.91;5064719;28;20075;-72
2023/08/07 08:00:42;;;;;;;13.63;2.67;;;;;;;19.06;70.36;156221.84;5067158;28;20020;-74
2023/08/07 08:03:08;;;;;;;11.07;3.00;;;;;;;19.05;69.53;156220.53;5062038;28;20051;-74
2023/08/07 08:05:34;;;;;;;17.83;2.90;;;;;;;18.96;67.37;156197.09;5054942;28;20549;-75
2023/08/07 08:07:59;;;;;;;8.80;2.28;;;;;;;18.86;66.71;156169.72;5057548;28;20035;-74
2023/08/07 08:10:25;;;;;;;6.67;1.90;;;;;;;18.86;68.03;156169.72;5059129;28;20472;-74
2023/08/07 08:12:50;;;;;;;8.60;2.40;;;;;;;19.01;68.29;156210.13;5063723;28;20047;-75
2023/08/07 08:15:16;;;;;;;8.73;2.33;;;;;;;19.07;68.67;156225.75;5064579;28;20036;-74
2023/08/07 08:17:41;;;;;;;11.50;2.57;;;;;;;18.82;70.43;156159.28;5063983;28;20478;-75
2023/08/07 08:20:07;;;;;;;10.17;2.17;;;;;;;18.34;70.52;156034.22;5058911;28;20068;-75
2023/08/07 08:22:33;;;;;;;11.85;2.05;;;;;;;17.93;69.94;155928.69;5062794;28;20040;-74
2023/08/07 08:24:59;;;;;;;10.30;2.03;;;;;;;18.15;69.19;155985.97;5064091;28;20040;-75
2023/08/07 08:27:25;;;;;;;8.20;1.90;;;;;;;18.09;68.75;155969.06;5060404;28;20048;-74
2023/08/07 08:29:50;;;;;;;7.55;1.70;;;;;;;18.30;68.22;156025.03;5058114;28;20024;-74
2023/08/07 08:32:15;;;;;;;5.87;1.83;;;;;;;18.05;67.70;155958.66;5064956;28;20570;-74
2023/08/07 08:34:41;;;;;;;5.87;1.80;;;;;;;18.36;65.87;156040.72;5061806;28;20029;-73
2023/08/07 08:37:06;;;;;;;7.40;1.97;;;;;;;18.51;65.45;156078.53;5077095;28;20052;-73
2023/08/07 08:39:32;;;;;;;8.13;2.10;;;;;;;18.59;66.23;156099.34;5061640;28;20118;-75
2023/08/07 08:41:59;;;;;;;7.33;2.07;;;;;;;18.79;66.50;156151.47;5058457;28;20393;-76
2023/08/07 08:44:26;;;;;;;6.93;2.28;;;;;;;19.05;66.52;156219.25;5059796;28;20021;-76
2023/08/07 08:46:55;;;;;;;9.90;2.17;;;;;;;19.06;66.49;156223.13;5094829;28;20025;-73
2023/08/07 08:49:28;;;;;;;8.45;2.13;;;;;;;18.85;64.08;156167.09;5064325;28;20579;-73
2023/08/07 08:51:53;;;;;;;5.95;1.75;;;;;;;19.27;64.39;156276.63;5063736;28;20515;-73
2023/08/07 08:54:20;;;;;;;8.17;1.73;;;;;;;19.15;61.88;156245.31;5063608;28;20016;-73
2023/08/07 08:56:45;;;;;;;6.50;1.98;;;;;;;19.30;61.54;156285.75;5062793;28;20489;-73
2023/08/07 08:59:11;;;;;;;8.93;2.63;;;;;;;19.26;60.57;156275.31;5061790;28;20032;-73
2023/08/07 09:01:37;;;;;;;14.33;2.70;;;;;;;19.35;59.33;156298.78;5063505;28;20025;-73
2023/08/07 09:04:04;;;;;;;8.52;1.80;;;;;;;19.39;60.50;156307.91;5062376;28;20062;-73
2023/08/07 09:06:31;;;;;;;7.80;1.98;;;;;;;19.18;61.32;156253.09;5094081;28;20036;-73
2023/08/07 09:08:59;;;;;;;10.70;2.15;;;;;;;19.44;61.31;156322.28;5062524;28;20031;-73
2023/08/07 09:11:26;;;;;;;7.03;2.72;;;;;;;19.67;61.52;156382.22;5097942;28;20465;-73
2023/08/07 09:13:52;;;;;;;;;;;;;;;19.60;59.71;156364.00;5065620;28;20439;-73
2023/08/07 09:16:18;;;;;;;5.03;1.80;;;;;;;20.02;60.02;156473.47;5062000;28;19935;-73
2023/08/07 09:18:44;;;;;;;4.70;1.80;;;;;;;20.06;60.38;156483.91;5068235;28;20027;-73
2023/08/07 09:21:09;;;;;;;7.43;2.43;;;;;;;20.15;58.43;156506.13;5066222;28;20025;-73
2023/08/07 09:23:34;;;;;;;12.90;2.33;;;;;;;20.27;58.75;156538.75;5064234;28;20113;-73
2023/08/07 09:26:04;;;;;;;9.20;1.87;;;;;;;20.23;56.75;156528.31;5064764;28;20474;-73
2023/08/07 09:28:31;;;;;;;6.15;1.70;;;;;;;20.36;56.95;156562.25;5064950;28;20131;-73
2023/08/07 09:30:58;;;;;;;21.35;3.17;;;;;;;19.79;57.45;156412.22;5061421;28;20035;-74
2023/08/07 09:33:25;;;;;;;7.25;2.67;;;;;;;19.42;60.12;156317.03;5067198;28;20077;-73
2023/08/07 09:35:51;;;;;;;6.43;2.00;;;;;;;19.55;60.34;156350.94;5061758;28;20107;-73
2023/08/07 09:38:16;;;;;;;9.67;2.30;;;;;;;19.15;59.47;156245.31;5078867;28;20167;-73
2023/08/07 09:40:42;;;;;;;7.10;2.10;;;;;;;19.64;58.77;156373.09;5064643;28;20023;-72
2023/08/07 09:43:08;;;;;;;6.43;2.07;;;;;;;19.95;58.68;156455.22;5062810;28;20051;-73
2023/08/07 09:45:36;;;;;;;7.70;2.33;;;;;;;20.03;56.08;156476.13;5064597;28;20372;-75
2023/08/07 09:48:04;;;;;;;6.30;1.80;;;;;;;20.19;53.95;156516.59;5068095;28;20036;-75
2023/08/07 09:50:31;;;;;;;10.10;2.05;;;;;;;19.98;54.42;156461.75;5063544;28;20080;-75
2023/08/07 09:52:57;;;;;;;7.43;1.73;;;;;;;20.30;54.73;156546.59;5063461;28;20025;-75
2023/08/07 09:55:23;;;;;;;4.45;1.98;;;;;;;20.24;54.71;156530.97;5068488;28;20504;-75
2023/08/07 09:57:49;;;;;;;7.97;2.10;;;;;;;20.72;55.39;156656.19;5067320;28;20032;-76
2023/08/07 10:00:15;;;;;;;14.15;2.47;;;;;;;20.92;55.33;156707.13;5064837;28;20029;-74
2023/08/07 10:02:44;;;;;;;5.50;1.58;;;;;;;20.72;54.82;156654.88;5066160;28;20089;-76
2023/08/07 10:05:10;;;;;;;5.32;2.22;;;;;;;20.85;56.19;156688.78;5065763;28;20028;-74
2023/08/07 10:07:39;;;;;;;7.40;1.98;;;;;;;20.98;55.74;156722.78;5068911;28;20094;-76
2023/08/07 10:10:09;;;;;;;7.93;1.88;;;;;;;20.86;56.85;156691.44;5063165;28;20044;-74
2023/08/07 10:12:36;;;;;;;10.23;2.45;;;;;;;20.80;57.78;156677.06;5062183;28;20540;-74
2023/08/07 10:15:02;;;;;;;;;;;;;;;20.73;56.45;156657.47;5069901;28;20028;-74
2023/08/07 10:17:28;;;;;;;8.98;2.15;;;;;;;20.57;56.00;156615.72;5064963;28;20285;-73
2023/08/07 10:19:54;;;;;;;9.18;2.35;;;;;;;20.51;56.75;156600.06;5062562;28;20500;-73
2023/08/07 10:22:19;;;;;;;7.30;1.80;;;;;;;20.70;58.68;156649.69;5065058;28;20037;-74
2023/08/07 10:24:47;;;;;;;9.30;2.17;;;;;;;20.76;57.63;156666.59;5063954;28;20036;-73
2023/08/07 10:27:16;;;;;;;7.95;2.00;;;;;;;20.87;55.32;156694.03;5063664;28;20032;-74
2023/08/07 10:29:43;;;;;;;4.63;1.70;;;;;;;21.13;55.80;156761.97;5062548;28;20474;-74
2023/08/07 10:32:10;;;;;;;4.13;1.80;;;;;;;21.17;55.19;156772.34;5068821;28;20504;-74
2023/08/07 10:34:39;;;;;;;4.88;1.80;;;;;;;21.06;54.32;156743.66;5058964;28;20077;-74
2023/08/07 10:37:08;;;;;;;7.45;2.00;;;;;;;21.22;52.19;156786.75;5064517;28;20470;-73
2023/08/07 10:39:34;;;;;;;13.50;2.00;;;;;;;21.62;53.72;156889.88;5069873;28;20071;-73
2023/08/07 10:42:00;;;;;;;10.43;2.40;;;;;;;21.44;53.30;156842.91;5066117;28;20442;-73
2023/08/07 10:44:30;;;;;;;6.68;2.67;;;;;;;21.51;52.23;156862.44;5062221;28;20036;-71
2023/08/07 10:46:57;;;;;;;11.05;2.30;;;;;;;21.18;53.29;156776.28;5069326;28;20041;-73
2023/08/07 10:49:33;;;;;;;7.03;1.80;;;;;;;21.79;53.90;156934.31;5062469;28;20474;-73
2023/08/07 10:52:01;;;;;;;6.03;2.13;;;;;;;21.65;52.55;156897.69;5067554;28;20443;-73
2023/08/07 10:54:27;;;;;;;5.25;1.77;;;;;;;21.74;53.05;156921.25;5061025;28;20108;-74
2023/08/07 10:56:54;;;;;;;10.40;2.30;;;;;;;21.93;53.05;156970.91;5065871;28;20586;-74
2023/08/07 10:59:20;;;;;;;12.88;1.90;;;;;;;21.75;52.79;156925.19;5062628;28;20104;-73
2023/08/07 11:01:51;;;;;;;3.87;1.80;;;;;;;21.28;53.21;156802.41;5066234;28;20110;-74
2023/08/07 11:04:17;;;;;;;9.63;1.85;;;;;;;21.34;54.57;156818.06;5060687;28;20524;-75
2023/08/07 11:06:44;;;;;;;9.97;2.27;;;;;;;21.75;53.31;156925.19;5068144;28;20056;-75
2023/08/07 11:09:10;;;;;;;8.95;3.17;;;;;;;21.93;52.77;156970.91;5063552;28;20062;-72
2023/08/07 11:11:46;;;;;;;8.25;2.20;;;;;;;21.99;52.91;156986.56;5062346;28;20412;-73